Time;durP1;ratioP1;P1;durP2;ratioP2;P2;SDS_P1;SDS_P2;PMS_P1;PMS_P2;Temp;Humidity;BMP_temperature;BMP_pressure;BME280_temperature;BME280_humidity;BME280_pressure;Samples;Min_cycle;Max_cycle;Signal;HPM_P1;HPM_P2
2022/08/10 00:02:29;;;;;;;;;5.50;5.00;;;;;25.14;36.60;101880.16;6338787;22;45332;-78
2022/08/10 00:04:55;;;;;;;;;4.50;4.50;;;;;25.18;36.56;101892.53;6313091;22;47549;-78
2022/08/10 00:07:20;;;;;;;;;4.50;4.50;;;;;25.14;36.61;101894.50;6341633;22;45175;-78
2022/08/10 00:09:46;;;;;;;;;6.00;6.00;;;;;25.09;36.49;101880.34;6313076;22;45145;-78
2022/08/10 00:12:11;;;;;;;;;4.00;4.00;;;;;25.05;36.82;101879.63;6341073;22;45097;-79
2022/08/10 00:14:36;;;;;;;;;5.00;5.00;;;;;25.00;36.47;101884.34;6312893;22;46823;-78
2022/08/10 00:17:02;;;;;;;;;5.25;5.25;;;;;24.98;37.08;101880.84;6341523;22;45257;-78
2022/08/10 00:19:27;;;;;;;;;5.50;4.50;;;;;24.98;36.58;101883.53;6342228;22;45160;-78
2022/08/10 00:21:53;;;;;;;;;5.50;5.00;;;;;24.88;36.89;101874.13;6341670;22;45160;-78
2022/08/10 00:24:18;;;;;;;;;5.75;5.75;;;;;24.91;36.80;101884.75;6313168;22;46007;-78
2022/08/10 00:26:43;;;;;;;;;6.75;6.25;;;;;24.88;37.11;101890.28;6341539;22;45404;-78
2022/08/10 00:29:09;;;;;;;;;5.00;5.00;;;;;24.88;36.82;101895.69;6341452;22;45356;-78
2022/08/10 00:31:34;;;;;;;;;6.00;6.00;;;;;24.85;36.80;101891.31;6312967;22;45449;-79
2022/08/10 00:34:00;;;;;;;;;4.00;4.00;;;;;24.78;37.14;101884.47;6313426;22;48432;-79
2022/08/10 00:36:25;;;;;;;;;5.00;5.00;;;;;24.75;37.37;101875.63;6312603;22;45306;-78
2022/08/10 00:38:50;;;;;;;;;4.50;3.75;;;;;24.72;36.80;101881.16;6341811;22;45253;-78
2022/08/10 00:41:16;;;;;;;;;5.00;4.75;;;;;24.68;36.99;101877.72;6341486;22;45478;-78
2022/08/10 00:43:41;;;;;;;;;5.50;4.75;;;;;24.63;37.66;101877.94;6312680;22;46879;-78
2022/08/10 00:46:06;;;;;;;;;4.75;3.75;;;;;24.59;37.38;101870.03;6341551;22;45341;-78
2022/08/10 00:48:32;;;;;;;;;4.75;4.75;;;;;24.54;37.38;101864.88;6339696;22;45321;-78
2022/08/10 00:50:58;;;;;;;;;4.75;4.50;;;;;24.58;37.66;101881.78;6313007;22;45189;-78
2022/08/10 00:53:26;;;;;;;;;5.75;5.75;;;;;24.52;37.56;101868.59;6341561;22;45282;-79
2022/08/10 00:55:51;;;;;;;;;4.25;4.25;;;;;24.52;37.61;101874.84;6341295;22;45113;-78
2022/08/10 00:58:17;;;;;;;;;5.00;5.00;;;;;24.48;37.38;101867.81;6312883;22;45201;-78
2022/08/10 01:00:42;;;;;;;;;6.00;6.00;;;;;24.53;37.78;101884.66;6341102;22;45177;-78
2022/08/10 01:03:08;;;;;;;;;3.00;3.00;;;;;24.49;37.44;101866.91;6313059;22;46841;-78
2022/08/10 01:05:41;;;;;;;;;6.00;6.00;;;;;24.45;37.68;101867.97;6341479;22;45400;-78
2022/08/10 01:08:30;;;;;;;;;4.00;4.00;;;;;24.43;37.59;101869.81;6341767;22;45171;-78
2022/08/10 01:11:11;;;;;;;;;4.00;4.00;;;;;24.40;38.19;101861.88;6341529;22;45367;-78
2022/08/10 01:13:42;;;;;;;;;5.00;5.00;;;;;24.40;37.69;101864.56;6341061;22;45316;-78
2022/08/10 01:16:41;;;;;;;;;5.25;5.25;;;;;24.42;37.63;101862.69;6341594;22;45228;-78
2022/08/10 01:19:15;;;;;;;;;6.00;6.00;;;;;24.40;37.88;101865.47;6330471;22;45242;-78
2022/08/10 01:21:59;;;;;;;;;5.67;5.67;;;;;24.39;37.54;101865.53;6312920;22;45247;-78
2022/08/10 01:25:00;;;;;;;;;6.00;6.00;;;;;24.37;38.24;101872.78;6312951;22;46143;-78
2022/08/10 01:28:04;;;;;;;;;4.50;4.50;;;;;24.34;37.85;101868.41;6285771;22;45316;-79
2022/08/10 01:30:32;;;;;;;;;5.00;5.00;;;;;24.28;37.69;101851.66;6341559;22;45200;-78
2022/08/10 01:33:08;;;;;;;;;3.33;3.33;;;;;24.32;37.93;101867.59;6340955;22;45303;-78
2022/08/10 01:35:44;;;;;;;;;7.50;5.75;;;;;24.29;38.22;101867.72;6340945;22;46533;-78
2022/08/10 01:38:26;;;;;;;;;4.00;4.00;;;;;24.28;38.13;101873.19;6340585;22;45196;-78
2022/08/10 01:41:02;;;;;;;;;5.33;4.67;;;;;24.20;38.03;101863.63;6341557;22;45296;-78
2022/08/10 01:43:30;;;;;;;;;6.00;6.00;;;;;24.23;38.35;101864.44;6340963;22;45315;-78
2022/08/10 01:45:59;;;;;;;;;5.00;5.00;;;;;24.16;38.40;101853.94;6311459;22;47813;-78
2022/08/10 01:48:33;;;;;;;;;6.00;5.00;;;;;24.13;38.12;101859.44;6341408;22;45431;-78
2022/08/10 01:51:13;;;;;;;;;6.75;6.00;;;;;24.15;38.45;101862.94;6312769;22;45373;-78
2022/08/10 01:53:50;;;;;;;;;4.50;4.50;;;;;24.09;38.35;101863.22;6341322;22;45233;-78
2022/08/10 01:56:18;;;;;;;;;6.50;6.50;;;;;24.05;38.76;101852.63;6312368;22;46872;-79
2022/08/10 01:58:47;;;;;;;;;4.50;4.50;;;;;24.05;38.64;101856.19;6341245;22;45205;-78
2022/08/10 02:01:17;;;;;;;;;7.25;6.25;;;;;23.99;38.35;101849.25;6340728;22;45440;-78
2022/08/10 02:03:46;;;;;;;;;7.25;6.00;;;;;23.98;38.99;101855.59;6341039;22;45140;-78
2022/08/10 02:06:14;;;;;;;;;7.50;5.25;;;;;23.99;38.50;101854.66;6312425;22;46373;-78
2022/08/10 02:08:41;;;;;;;;;5.00;4.00;;;;;23.97;38.90;101853.81;6340841;22;45127;-78
2022/08/10 02:11:10;;;;;;;;;5.25;4.50;;;;;23.93;38.65;101844.16;6341001;22;45098;-78
2022/08/10 02:13:37;;;;;;;;;5.25;4.50;;;;;23.89;39.04;101845.22;6312278;22;45453;-78
2022/08/10 02:16:05;;;;;;;;;5.25;5.25;;;;;23.88;38.62;101850.66;6340848;22;45527;-79
2022/08/10 02:18:33;;;;;;;;;4.50;4.50;;;;;23.90;39.19;101854.19;6340940;22;45199;-79
2022/08/10 02:21:03;;;;;;;;;7.00;5.75;;;;;23.84;39.22;101849.03;6312917;22;45176;-78
2022/08/10 02:23:31;;;;;;;;;6.75;6.75;;;;;23.83;39.08;101849.97;6338723;22;45362;-79
2022/08/10 02:25:59;;;;;;;;;6.00;6.00;;;;;23.79;39.19;101860.00;6340918;22;45215;-77
2022/08/10 02:28:28;;;;;;;;;5.00;5.00;;;;;23.76;38.89;101850.25;6338516;22;45973;-77
2022/08/10 02:30:55;;;;;;;;;5.00;5.00;;;;;23.75;39.16;101859.22;6341280;22;45250;-78
2022/08/10 02:33:25;;;;;;;;;5.00;4.50;;;;;23.75;39.33;101861.91;6341136;22;45156;-78
2022/08/10 02:35:52;;;;;;;;;6.00;5.50;;;;;23.73;39.46;101854.84;6341615;22;45355;-78
2022/08/10 02:38:24;;;;;;;;;5.50;5.50;;;;;23.75;39.28;101872.69;6341023;22;45301;-77
2022/08/10 02:40:55;;;;;;;;;5.00;5.00;;;;;23.68;39.55;101859.50;6342940;22;45395;-77
2022/08/10 02:43:27;;;;;;;;;5.75;5.75;;;;;23.71;39.30;101860.31;6314592;22;45447;-78
2022/08/10 02:46:00;;;;;;;;;8.00;8.00;;;;;23.63;39.44;101859.72;6343955;22;45416;-78
2022/08/10 02:48:45;;;;;;;;;6.50;6.50;;;;;23.60;39.68;101856.25;6315965;22;45287;-77
2022/08/10 02:51:16;;;;;;;;;5.50;5.00;;;;;23.56;39.82;101856.38;6315078;22;45369;-78
2022/08/10 02:53:47;;;;;;;;;6.00;5.50;;;;;23.53;39.77;101864.56;6314828;22;45197;-78
2022/08/10 02:56:23;;;;;;;;;7.25;7.00;;;;;23.55;40.07;101859.16;6314349;22;45941;-79
2022/08/10 02:59:00;;;;;;;;;6.00;6.00;;;;;23.53;39.72;101864.56;6314714;22;45883;-78
2022/08/10 03:01:35;;;;;;;;;4.50;4.00;;;;;23.53;39.83;101867.28;6342777;22;45108;-78
2022/08/10 03:04:05;;;;;;;;;5.50;5.00;;;;;23.42;39.70;101857.88;6341760;22;45275;-79
2022/08/10 03:06:38;;;;;;;;;5.00;5.00;;;;;23.42;40.27;101863.28;6313191;22;47262;-79
2022/08/10 03:09:07;;;;;;;;;6.00;5.25;;;;;23.43;40.46;101871.25;6341354;22;45371;-78
2022/08/10 03:11:34;;;;;;;;;7.25;5.50;;;;;23.37;40.39;101867.94;6342007;22;45251;-78
2022/08/10 03:14:00;;;;;;;;;5.00;5.00;;;;;23.37;40.47;101868.81;6341575;22;45388;-78
2022/08/10 03:16:28;;;;;;;;;3.75;3.75;;;;;23.36;40.17;101866.19;6341878;22;45409;-78
2022/08/10 03:18:57;;;;;;;;;5.50;5.50;;;;;23.30;40.01;101857.41;6341799;22;45488;-78
2022/08/10 03:21:26;;;;;;;;;5.00;4.00;;;;;23.25;40.38;101853.16;6313263;22;45232;-78
2022/08/10 03:23:54;;;;;;;;;5.75;5.75;;;;;23.25;40.48;101848.66;6341656;22;45346;-79
2022/08/10 03:26:20;;;;;;;;;7.75;6.75;;;;;23.25;40.19;101851.34;6341521;22;45295;-79
2022/08/10 03:28:47;;;;;;;;;5.00;5.00;;;;;23.21;40.57;101844.34;6313020;22;45334;-78
2022/08/10 03:31:12;;;;;;;;;5.00;5.00;;;;;23.23;41.02;101844.28;6342233;22;45338;-78
2022/08/10 03:33:41;;;;;;;;;5.33;5.33;;;;;23.26;40.68;101845.06;6313647;22;45287;-78
2022/08/10 03:36:07;;;;;;;;;5.00;5.00;;;;;23.21;40.93;101844.34;6341889;22;45184;-78
2022/08/10 03:38:33;;;;;;;;;4.75;4.75;;;;;23.25;40.98;101856.72;6341589;22;45149;-79
2022/08/10 03:41:02;;;;;;;;;5.25;5.25;;;;;23.18;40.52;101852.53;6340014;22;45350;-77
2022/08/10 03:43:28;;;;;;;;;6.50;6.50;;;;;23.17;41.03;101853.44;6313265;22;45494;-77
2022/08/10 03:45:57;;;;;;;;;4.75;4.75;;;;;23.16;40.76;101850.84;6313307;22;47247;-77
2022/08/10 03:48:25;;;;;;;;;6.75;6.75;;;;;23.17;41.15;101861.50;6341388;22;45164;-77
2022/08/10 03:50:50;;;;;;;;;7.00;7.00;;;;;23.10;40.90;101862.69;6341692;22;45381;-77
2022/08/10 03:53:17;;;;;;;;;4.50;4.50;;;;;23.11;41.05;101867.13;6341448;22;45363;-78
2022/08/10 03:55:43;;;;;;;;;7.75;7.75;;;;;23.06;41.22;101863.75;6313362;22;47446;-78
2022/08/10 03:58:10;;;;;;;;;7.00;7.00;;;;;23.03;41.20;101855.81;6339643;22;45899;-78
2022/08/10 04:00:37;;;;;;;;;7.75;7.00;;;;;23.05;41.23;101860.19;6339841;22;45168;-78
2022/08/10 04:03:04;;;;;;;;;8.75;7.75;;;;;23.02;41.14;101865.69;6341775;22;45163;-78
2022/08/10 04:05:34;;;;;;;;;9.75;8.25;;;;;23.03;41.84;101871.91;6312341;22;47808;-78
2022/08/10 04:08:00;;;;;;;;;7.25;6.50;;;;;22.94;41.68;101857.00;6313222;22;45193;-77
2022/08/10 04:10:26;;;;;;;;;6.50;6.50;;;;;22.99;41.93;101862.22;6341632;22;45221;-78
2022/08/10 04:12:52;;;;;;;;;8.75;6.75;;;;;22.96;42.14;101860.53;6339293;22;45183;-78
2022/08/10 04:15:17;;;;;;;;;8.25;5.75;;;;;22.88;41.83;101852.75;6312855;22;46296;-78
2022/08/10 04:17:43;;;;;;;;;5.50;5.50;;;;;22.87;41.83;101859.03;6313386;22;45209;-78
2022/08/10 04:20:25;;;;;;;;;6.25;6.25;;;;;22.87;41.90;101856.34;6341915;22;45278;-78
2022/08/10 04:22:54;;;;;;;;;7.25;6.00;;;;;22.84;41.73;101859.16;6341833;22;45244;-78
2022/08/10 04:25:23;;;;;;;;;6.00;6.00;;;;;22.83;42.01;101854.72;6313016;22;47757;-78
2022/08/10 04:27:49;;;;;;;;;5.50;5.50;;;;;22.82;42.11;101858.31;6313215;22;45346;-78
2022/08/10 04:30:15;;;;;;;;;7.25;7.25;;;;;22.81;42.43;101871.81;6339764;22;45243;-78
2022/08/10 04:32:43;;;;;;;;;7.00;7.00;;;;;22.71;42.91;101860.53;6313265;22;45433;-78
2022/08/10 04:35:10;;;;;;;;;3.00;3.00;;;;;22.71;42.60;101865.91;6339727;22;48235;-78
2022/08/10 04:37:38;;;;;;;;;5.25;5.25;;;;;22.62;42.93;101852.81;6341488;22;45243;-78
2022/08/10 04:40:04;;;;;;;;;3.67;3.67;;;;;22.60;42.75;101862.72;6313339;22;45202;-78
2022/08/10 04:42:30;;;;;;;;;4.00;4.00;;;;;22.52;43.45;101856.75;6341495;22;45416;-78
2022/08/10 04:44:55;;;;;;;;;4.00;4.00;;;;;22.46;43.21;101858.72;6338575;22;48302;-78
2022/08/10 04:47:24;;;;;;;;;5.25;4.75;;;;;22.45;43.10;101864.16;6312157;22;45267;-78
2022/08/10 04:49:49;;;;;;;;;5.00;5.00;;;;;22.50;43.27;101872.03;6341527;22;45313;-78
2022/08/10 04:52:15;;;;;;;;;6.50;5.75;;;;;22.42;43.15;101865.13;6312401;22;45434;-78
2022/08/10 04:54:40;;;;;;;;;4.25;4.25;;;;;22.40;43.52;101863.44;6341224;22;45933;-78
2022/08/10 04:57:05;;;;;;;;;5.50;4.25;;;;;22.40;43.44;101872.38;6341253;22;45329;-78
2022/08/10 04:59:31;;;;;;;;;4.25;4.25;;;;;22.37;43.61;101868.91;6313100;22;45220;-78
2022/08/10 05:01:56;;;;;;;;;4.50;4.50;;;;;22.37;43.81;101880.53;6341057;22;45508;-78
2022/08/10 05:04:22;;;;;;;;;5.50;4.50;;;;;22.36;43.89;101885.94;6312307;22;48004;-78
2022/08/10 05:06:47;;;;;;;;;5.75;4.75;;;;;22.28;43.95;101878.16;6313190;22;45381;-78
2022/08/10 05:09:13;;;;;;;;;7.75;6.25;;;;;22.28;43.51;101883.53;6341681;22;45179;-77
2022/08/10 05:11:38;;;;;;;;;3.75;3.75;;;;;22.20;43.52;101874.88;6339149;22;45773;-78
2022/08/10 05:14:03;;;;;;;;;6.25;5.25;;;;;22.18;44.19;101877.59;6341420;22;45597;-78
2022/08/10 05:16:29;;;;;;;;;6.00;6.00;;;;;22.18;44.27;101882.03;6341442;22;45247;-78
2022/08/10 05:18:54;;;;;;;;;4.00;4.00;;;;;22.17;44.53;101891.91;6313084;22;45141;-77
2022/08/10 05:21:19;;;;;;;;;6.25;6.00;;;;;22.10;44.23;101876.94;6341122;22;45493;-78
2022/08/10 05:23:45;;;;;;;;;6.00;6.00;;;;;22.09;44.41;101872.50;6338922;22;47160;-78
2022/08/10 05:26:10;;;;;;;;;5.25;5.25;;;;;22.10;44.65;101881.44;6341209;22;45144;-78
2022/08/10 05:28:36;;;;;;;;;6.25;6.25;;;;;22.11;45.06;101883.19;6338687;22;45340;-78
2022/08/10 05:31:01;;;;;;;;;6.75;6.75;;;;;22.18;44.68;101895.47;6313022;22;45736;-78
2022/08/10 05:33:26;;;;;;;;;6.00;6.00;;;;;22.14;44.82;101889.34;6338530;22;46911;-77
2022/08/10 05:35:52;;;;;;;;;5.67;5.67;;;;;22.11;44.88;101886.75;6341325;22;45184;-78
2022/08/10 05:38:19;;;;;;;;;6.50;5.50;;;;;22.16;44.67;101898.22;6312769;22;45612;-77
2022/08/10 05:40:45;;;;;;;;;6.50;6.50;;;;;22.14;44.93;101891.13;6339551;22;45466;-78
2022/08/10 05:43:11;;;;;;;;;6.75;6.00;;;;;22.20;45.03;101899.88;6340986;22;45365;-78
2022/08/10 05:45:36;;;;;;;;;7.75;7.00;;;;;22.18;44.95;101898.13;6312703;22;45537;-77
2022/08/10 05:48:02;;;;;;;;;5.50;5.50;;;;;22.16;45.18;101892.84;6312971;22;45314;-75
2022/08/10 05:50:33;;;;;;;;;5.50;5.50;;;;;22.15;45.38;101891.06;6312884;22;45478;-76
2022/08/10 05:52:58;;;;;;;;;6.25;6.25;;;;;22.08;45.55;101881.50;6338596;22;47292;-77
2022/08/10 05:55:28;;;;;;;;;7.75;6.50;;;;;22.15;44.86;101891.06;6341128;22;45365;-76
2022/08/10 05:57:54;;;;;;;;;7.00;7.00;;;;;22.21;44.94;101898.06;6341272;22;45172;-76
2022/08/10 06:00:24;;;;;;;;;5.50;4.75;;;;;22.20;45.07;101897.19;6339935;22;45472;-77
2022/08/10 06:02:54;;;;;;;;;6.25;6.25;;;;;22.23;44.84;101901.59;6340662;22;45444;-76
2022/08/10 06:05:24;;;;;;;;;6.25;6.00;;;;;22.23;45.15;101893.53;6341146;22;45152;-76
2022/08/10 06:07:56;;;;;;;;;6.75;5.25;;;;;22.28;45.48;101898.75;6312719;22;45285;-77
2022/08/10 06:10:22;;;;;;;;;5.50;5.00;;;;;22.25;45.06;101897.03;6340878;22;45169;-76
2022/08/10 06:14:59;;;;;;;;;6.75;5.00;;;;;22.31;45.41;101899.50;6313657;22;48466;-76
2022/08/10 06:15:39;;;;;;;;;9.25;9.25;;;;;22.33;44.97;101899.47;6343597;22;45316;-76
2022/08/10 06:18:05;;;;;;;;;8.00;7.25;;;;;22.35;45.28;101903.00;6344086;22;45174;-77
2022/08/10 06:20:32;;;;;;;;;6.00;6.00;;;;;22.33;45.29;101900.34;6344219;22;45121;-76
2022/08/10 06:23:02;;;;;;;;;8.25;7.75;;;;;22.38;45.20;101902.88;6315530;22;47124;-75
2022/08/10 06:25:31;;;;;;;;;6.25;6.25;;;;;22.34;45.31;101891.34;6344069;22;45352;-75
2022/08/10 06:28:00;;;;;;;;;9.50;9.00;;;;;22.41;45.41;101905.44;6315759;22;45222;-76
2022/08/10 06:30:28;;;;;;;;;6.75;6.75;;;;;22.46;45.39;101909.72;6343789;22;45446;-76
2022/08/10 06:32:55;;;;;;;;;7.25;7.25;;;;;22.51;45.42;101908.66;6315745;22;47253;-76
2022/08/10 06:35:27;;;;;;;;;7.00;7.00;;;;;22.54;45.12;101912.16;6315960;22;46553;-76
2022/08/10 06:37:56;;;;;;;;;7.00;7.00;;;;;22.54;45.25;101906.78;6343872;22;45256;-76
2022/08/10 06:40:26;;;;;;;;;7.50;7.00;;;;;22.57;44.92;101906.66;6344318;22;45181;-76
2022/08/10 06:42:53;;;;;;;;;6.25;6.25;;;;;22.67;44.76;101899.16;6315211;22;47351;-76
2022/08/10 06:45:22;;;;;;;;;6.00;6.00;;;;;22.75;44.66;101902.47;6344416;22;45237;-76
2022/08/10 06:47:58;;;;;;;;;8.00;6.50;;;;;22.82;44.44;101908.47;6343947;22;45227;-76
2022/08/10 06:50:40;;;;;;;;;8.75;7.75;;;;;22.84;44.43;101901.25;6315560;22;45303;-76
2022/08/10 06:53:11;;;;;;;;;6.25;6.00;;;;;22.94;44.17;101908.03;6343584;22;45249;-76
2022/08/10 06:55:39;;;;;;;;;11.50;9.00;;;;;23.00;44.43;101909.66;6343781;22;45259;-76
2022/08/10 06:58:07;;;;;;;;;8.50;8.00;;;;;23.05;44.03;101908.53;6343800;22;45307;-76
2022/08/10 07:00:40;;;;;;;;;8.50;7.00;;;;;23.11;43.85;101902.06;6343253;22;45179;-76
2022/08/10 07:03:09;;;;;;;;;8.00;8.00;;;;;23.16;43.94;101905.44;6315206;22;47271;-76
2022/08/10 07:05:41;;;;;;;;;10.50;8.00;;;;;23.26;43.46;101914.91;6343526;22;45352;-76
2022/08/10 07:08:09;;;;;;;;;6.50;6.50;;;;;23.30;43.26;101913.84;6343967;22;45214;-76
2022/08/10 07:10:35;;;;;;;;;8.75;8.75;;;;;23.37;42.85;101906.44;6343828;22;45287;-76
2022/08/10 07:13:02;;;;;;;;;7.75;7.50;;;;;23.44;42.58;101909.75;6341237;22;48056;-77
2022/08/10 07:15:29;;;;;;;;;8.75;8.75;;;;;23.54;42.45;101912.03;6343493;22;45282;-77
2022/08/10 07:17:56;;;;;;;;;9.50;8.00;;;;;23.59;42.27;101917.22;6341985;22;45212;-76
2022/08/10 07:20:23;;;;;;;;;7.25;7.25;;;;;23.64;42.22;101907.16;6343515;22;45176;-76
2022/08/10 07:22:52;;;;;;;;;9.50;8.00;;;;;23.75;41.89;101920.22;6341389;22;47160;-77
2022/08/10 07:25:23;;;;;;;;;7.25;6.50;;;;;23.83;41.89;101917.22;6341740;22;45483;-77
2022/08/10 07:27:51;;;;;;;;;7.00;6.00;;;;;23.87;41.62;101914.34;6312744;22;45356;-75
2022/08/10 07:30:16;;;;;;;;;7.00;7.00;;;;;23.84;41.46;101897.44;6313313;22;45473;-77
2022/08/10 07:32:47;;;;;;;;;12.25;9.25;;;;;23.92;41.69;101904.28;6313424;22;47100;-82
2022/08/10 07:35:15;;;;;;;;;6.75;6.75;;;;;24.01;41.65;101911.09;6342568;22;45086;-81
2022/08/10 07:37:45;;;;;;;;;9.25;7.50;;;;;24.04;41.40;101904.72;6341729;22;45226;-83
2022/08/10 07:40:13;;;;;;;;;7.00;6.25;;;;;24.04;41.35;101891.25;6313049;22;45196;-83
2022/08/10 07:42:41;;;;;;;;;10.00;10.00;;;;;24.21;41.53;101912.94;6313040;22;48079;-83
2022/08/10 07:45:07;;;;;;;;;9.25;9.25;;;;;24.22;41.46;101906.63;6342558;22;45327;-81
2022/08/10 07:47:47;;;;;;;;;6.75;6.00;;;;;24.29;41.10;101904.53;6312893;22;45291;-82
2022/08/10 07:50:17;;;;;;;;;7.50;7.00;;;;;24.42;40.83;101917.41;6341874;22;45183;-83
2022/08/10 07:52:46;;;;;;;;;9.75;7.75;;;;;24.46;40.77;101902.03;6341440;22;45950;-83
2022/08/10 07:55:17;;;;;;;;;9.25;9.00;;;;;24.49;40.53;101904.59;6314074;22;45983;-78
2022/08/10 07:57:45;;;;;;;;;8.75;7.00;;;;;24.57;40.58;101901.56;6339023;22;45354;-78
2022/08/10 08:00:11;;;;;;;;;7.00;7.00;;;;;24.66;40.26;101914.63;6341202;22;45439;-79
2022/08/10 08:02:57;;;;;;;;;8.00;8.00;;;;;24.75;40.53;101911.53;6312703;22;48155;-78
2022/08/10 08:05:25;;;;;;;;;19.50;16.75;;;;;24.86;40.21;101922.72;6339466;22;45184;-80
2022/08/10 08:07:52;;;;;;;;;10.00;10.00;;;;;24.91;40.38;101911.69;6312999;22;45398;-80
2022/08/10 08:10:21;;;;;;;;;12.25;10.50;;;;;24.98;39.76;101915.88;6313232;22;45703;-80
2022/08/10 08:12:49;;;;;;;;;11.00;11.00;;;;;25.06;39.93;101912.84;6312232;22;47250;-80
2022/08/10 08:15:19;;;;;;;;;8.50;7.25;;;;;25.15;40.06;101912.44;6313185;22;45308;-80
2022/08/10 08:17:47;;;;;;;;;8.25;7.25;;;;;25.25;39.19;101911.06;6342049;22;45215;-79
2022/08/10 08:20:16;;;;;;;;;9.75;9.25;;;;;25.36;39.00;101915.09;6312740;22;45363;-80
2022/08/10 08:22:43;;;;;;;;;9.50;9.50;;;;;25.40;39.28;101898.69;6339032;22;47933;-81
2022/08/10 08:25:09;;;;;;;;;8.75;8.25;;;;;25.52;38.75;101905.31;6339137;22;45527;-80
2022/08/10 08:27:36;;;;;;;;;7.50;7.50;;;;;25.58;38.47;101898.75;6341188;22;45177;-79
2022/08/10 08:30:02;;;;;;;;;9.00;9.00;;;;;25.66;38.56;101893.84;6341674;22;45184;-81
2022/08/10 08:32:32;;;;;;;;;9.00;8.00;;;;;25.71;38.31;101879.22;6340808;22;46275;-81
2022/08/10 08:35:04;;;;;;;;;7.00;6.50;;;;;25.89;38.26;101895.47;6313028;22;45255;-81
2022/08/10 08:37:32;;;;;;;;;9.00;8.00;;;;;25.93;37.88;101880.88;6308381;22;45576;-80
2022/08/10 08:39:58;;;;;;;;;9.25;9.00;;;;;26.05;37.94;101885.66;6341167;22;45334;-81
2022/08/10 08:42:43;;;;;;;;;4.50;4.50;;;;;26.18;37.76;101892.16;6312780;22;47098;-81
2022/08/10 08:45:26;;;;;;;;;9.00;8.00;;;;;26.28;37.37;101892.59;6312648;22;45392;-79
2022/08/10 08:48:10;;;;;;;;;8.75;7.00;;;;;26.38;37.24;101888.47;6339130;22;45274;-81
2022/08/10 08:50:54;;;;;;;;;10.25;8.75;;;;;26.47;36.79;101897.91;6312601;22;45339;-80
2022/08/10 08:53:28;;;;;;;;;9.00;9.00;;;;;26.55;36.61;101894.84;6312611;22;46830;-80
2022/08/10 08:56:03;;;;;;;;;9.50;7.75;;;;;26.65;36.81;101888.00;6312265;22;45951;-88
2022/08/10 08:58:55;;;;;;;;;9.75;9.25;;;;;26.70;36.64;101888.59;6313638;22;45648;-79
2022/08/10 09:01:58;;;;;;;;;9.00;9.00;;;;;26.81;36.49;101888.94;6341107;22;45152;-80
2022/08/10 09:04:51;;;;;;;;;9.50;8.75;;;;;26.89;36.20;101885.81;6312452;22;48101;-83
2022/08/10 09:07:54;;;;;;;;;9.25;8.25;;;;;26.98;35.88;101889.84;6341415;22;45299;-82
2022/08/10 09:10:49;;;;;;;;;8.50;6.75;;;;;27.01;35.56;101884.25;6312255;22;45350;-82
2022/08/10 09:13:36;;;;;;;;;9.50;9.00;;;;;27.06;35.65;101885.75;6312224;22;45330;-83
2022/08/10 09:16:09;;;;;;;;;8.75;8.00;;;;;27.13;35.40;101875.50;6312484;22;47525;-85
2022/08/10 09:18:49;;;;;;;;;11.25;11.25;;;;;27.23;35.42;101874.03;6312524;22;45720;-83
2022/08/10 09:21:20;;;;;;;;;9.25;8.50;;;;;27.37;35.22;101875.97;6335166;22;45282;-84
2022/08/10 09:23:59;;;;;;;;;9.00;7.50;;;;;27.41;35.00;101860.44;6338269;22;45461;-84
2022/08/10 09:26:37;;;;;;;;;10.00;8.50;;;;;27.49;34.96;101858.16;6310255;22;47862;-83
2022/08/10 09:29:06;;;;;;;;;7.50;7.50;;;;;27.63;34.58;101863.66;6311341;22;45626;-82
2022/08/10 09:31:46;;;;;;;;;8.00;6.75;;;;;27.77;34.51;101861.97;6310650;22;45437;-82
2022/08/10 09:34:26;;;;;;;;;10.50;9.25;;;;;27.90;34.14;101860.31;6310456;22;45406;-83
2022/08/10 09:37:22;;;;;;;;;7.00;7.00;;;;;28.00;34.07;101858.81;6309709;22;48201;-82
2022/08/10 09:39:56;;;;;;;;;8.00;8.00;;;;;28.10;34.29;101856.47;6310413;22;45337;-81
2022/08/10 09:42:49;;;;;;;;;8.50;8.50;;;;;28.25;33.58;101858.22;6338180;22;45587;-82
2022/08/10 09:45:44;;;;;;;;;9.25;9.00;;;;;28.32;33.34;101846.06;6336790;22;45562;-83
2022/08/10 09:48:18;;;;;;;;;9.25;8.50;;;;;28.46;33.48;101855.22;6226903;22;45964;-83
2022/08/10 09:50:57;;;;;;;;;10.25;7.50;;;;;28.56;32.96;101850.97;6309325;22;45430;-83
2022/08/10 09:53:58;;;;;;;;;8.00;7.00;;;;;28.69;32.92;101846.53;6311154;22;45473;-84
2022/08/10 09:56:28;;;;;;;;;8.75;8.75;;;;;28.85;32.86;101838.31;6309510;22;45750;-84
2022/08/10 09:59:35;;;;;;;;;8.25;7.75;;;;;29.00;32.50;101850.00;6311527;22;47993;-82
2022/08/10 10:02:11;;;;;;;;;5.33;5.33;;;;;29.09;32.00;101844.03;6313013;22;45405;-83
2022/08/10 10:04:51;;;;;;;;;9.75;9.00;;;;;29.21;32.43;101845.06;6339926;22;45262;-84
2022/08/10 10:07:27;;;;;;;;;7.25;7.25;;;;;29.29;31.73;101831.00;6338935;22;45328;-81
2022/08/10 10:10:19;;;;;;;;;10.25;8.50;;;;;29.39;31.58;101822.16;6311603;22;47095;-76
2022/08/10 10:13:10;;;;;;;;;7.67;7.33;;;;;29.52;31.11;101830.38;6325551;22;45310;-76
2022/08/10 10:15:57;;;;;;;;;6.50;6.50;;;;;29.74;31.01;101826.25;6340241;22;45243;-76
2022/08/10 10:18:49;;;;;;;;;6.00;6.00;;;;;29.94;31.03;101824.88;6312044;22;45188;-76
2022/08/10 10:21:42;;;;;;;;;10.75;7.75;;;;;29.99;30.96;101806.44;6339664;22;46289;-77
2022/08/10 10:24:29;;;;;;;;;8.25;7.25;;;;;30.15;30.72;101803.53;6341230;22;45477;-76
2022/08/10 10:27:33;;;;;;;;;9.75;9.75;;;;;30.40;30.17;101824.47;6341328;22;45219;-77
2022/08/10 10:30:03;;;;;;;;;8.00;8.00;;;;;30.63;29.76;101810.09;6309844;22;45508;-78
2022/08/10 10:33:08;;;;;;;;;7.25;7.25;;;;;30.85;29.32;101803.13;6317410;22;48101;-76
2022/08/10 10:35:54;;;;;;;;;6.00;6.00;;;;;31.07;29.24;101808.75;6311857;22;45351;-78
2022/08/10 10:38:34;;;;;;;;;7.00;7.00;;;;;31.18;29.00;101797.09;6314511;22;45679;-78
2022/08/10 10:41:28;;;;;;;;;5.50;5.50;;;;;31.35;28.11;101802.13;6348377;22;45338;-78
2022/08/10 10:44:05;;;;;;;;;8.50;8.50;;;;;31.37;27.89;101800.19;6351270;22;46157;-78
2022/08/10 10:46:56;;;;;;;;;8.75;8.75;;;;;31.44;27.78;101797.03;6344855;22;45361;-76
2022/08/10 10:49:42;;;;;;;;;61.75;50.25;;;;;31.56;27.65;101806.97;6311706;22;45329;-77
2022/08/10 10:52:26;;;;;;;;;7.25;7.25;;;;;31.72;27.35;101793.06;6315694;22;45582;-76
2022/08/10 10:55:13;;;;;;;;;79.33;75.67;;;;;31.91;26.83;101796.09;6339957;22;46066;-76
2022/08/10 10:57:48;;;;;;;;;11.50;10.50;;;;;32.08;26.88;101798.44;6340389;22;45247;-79
2022/08/10 11:00:15;;;;;;;;;9.75;9.75;;;;;32.22;26.21;101783.72;6340830;22;45259;-77
2022/08/10 11:02:53;;;;;;;;;7.00;7.00;;;;;32.39;26.22;101781.50;6313349;22;45406;-78
2022/08/10 11:06:06;;;;;;;;;6.50;6.50;;;;;32.50;26.01;101767.91;6313027;22;46855;-78
2022/08/10 11:08:41;;;;;;;;;8.75;8.75;;;;;32.69;25.85;101775.47;6312072;22;45561;-78
2022/08/10 11:11:12;;;;;;;;;4.75;4.75;;;;;32.77;25.93;101766.66;6341447;22;45202;-77
2022/08/10 11:13:45;;;;;;;;;7.00;6.50;;;;;32.91;24.95;101769.16;6338763;22;45431;-77
2022/08/10 11:16:37;;;;;;;;;6.75;6.75;;;;;33.04;24.56;101760.81;6341260;22;46282;-77
2022/08/10 11:19:32;;;;;;;;;7.50;7.25;;;;;33.19;24.68;101755.97;6313142;22;45247;-78
2022/08/10 11:22:20;;;;;;;;;6.00;6.00;;;;;33.25;24.35;101748.09;6341271;22;45296;-78
2022/08/10 11:25:09;;;;;;;;;10.00;9.25;;;;;33.26;24.18;101752.59;6312998;22;45464;-78
2022/08/10 11:28:14;;;;;;;;;10.25;10.25;;;;;33.27;23.33;101748.00;6340910;22;46322;-77
2022/08/10 11:30:48;;;;;;;;;8.00;8.00;;;;;33.29;23.15;101741.41;6341155;22;45215;-78
2022/08/10 11:33:35;;;;;;;;;8.25;8.25;;;;;33.37;23.73;101747.09;6341772;22;45278;-76
2022/08/10 11:36:05;;;;;;;;;7.75;7.00;;;;;33.44;23.38;101735.63;6338981;22;45995;-79
2022/08/10 11:38:55;;;;;;;;;8.50;8.25;;;;;33.54;22.91;101739.34;6335859;22;46196;-79
2022/08/10 11:41:48;;;;;;;;;8.00;8.00;;;;;33.60;23.24;101730.63;6334124;22;45560;-77
2022/08/10 11:44:33;;;;;;;;;8.00;7.50;;;;;33.75;23.11;101732.03;6310212;22;45701;-78
2022/08/10 11:47:13;;;;;;;;;6.25;6.25;;;;;33.92;22.33;101727.88;6309997;22;45719;-78
2022/08/10 11:50:00;;;;;;;;;8.00;7.50;;;;;34.03;22.37;101710.53;6337809;22;45709;-78
2022/08/10 11:52:32;;;;;;;;;10.00;9.00;;;;;34.22;21.71;101732.53;6309240;22;45896;-78